createdAt,value
2022-11-28T00:00:35.234Z,77.41
2022-11-28T00:01:58.410Z,77.33
2022-11-28T00:03:23.205Z,77.39
2022-11-28T00:04:46.232Z,77.25
2022-11-28T00:06:10.709Z,77.12
2022-11-28T00:07:34.928Z,76.88
2022-11-28T00:09:00.619Z,76.88
2022-11-28T00:10:32.693Z,76.88
2022-11-28T00:11:58.325Z,76.77
2022-11-28T00:13:22.148Z,76.63
2022-11-28T00:14:44.922Z,76.72
2022-11-28T00:16:10.608Z,76.46
2022-11-28T00:17:37.097Z,76.68
2022-11-28T00:19:01.740Z,76.56
2022-11-28T00:20:24.011Z,76.63
2022-11-28T00:21:48.603Z,76.54
2022-11-28T00:23:13.727Z,76.67
2022-11-28T00:24:35.990Z,76.74
2022-11-28T00:26:00.803Z,76.68
2022-11-28T00:27:25.555Z,76.73
2022-11-28T00:28:48.977Z,76.73
2022-11-28T00:30:15.656Z,76.81
2022-11-28T00:31:43.029Z,76.83
2022-11-28T00:33:18.386Z,76.71
2022-11-28T00:36:23.714Z,76.70
2022-11-28T00:37:45.839Z,76.63
2022-11-28T00:39:07.075Z,76.75
2022-11-28T00:40:30.274Z,76.82
2022-11-28T00:41:52.717Z,76.55
2022-11-28T00:43:14.036Z,76.92
2022-11-28T00:44:37.971Z,76.92
2022-11-28T00:45:59.546Z,76.76
2022-11-28T00:47:27.984Z,76.65
2022-11-28T00:48:50.047Z,76.77
2022-11-28T00:50:13.941Z,76.77
2022-11-28T00:51:37.224Z,76.55
2022-11-28T00:53:02.020Z,76.67
2022-11-28T00:54:23.255Z,76.70
2022-11-28T00:55:46.337Z,76.78
2022-11-28T00:57:09.049Z,76.91
2022-11-28T00:58:30.706Z,76.87
2022-11-28T00:59:57.478Z,76.67
2022-11-28T01:01:21.852Z,76.78
2022-11-28T01:02:44.597Z,76.85
2022-11-28T01:04:09.913Z,76.73
2022-11-28T01:05:31.775Z,76.77
2022-11-28T01:06:54.292Z,76.60
2022-11-28T01:08:19.071Z,76.91
2022-11-28T01:09:45.667Z,77.02
2022-11-28T01:11:20.701Z,76.78
2022-11-28T01:12:45.720Z,77.19
2022-11-28T01:14:12.084Z,77.14
2022-11-28T01:15:40.512Z,77.27
2022-11-28T01:17:03.288Z,77.52
2022-11-28T01:18:34.385Z,77.34
2022-11-28T01:20:00.335Z,77.44
2022-11-28T01:22:47.267Z,77.77
2022-11-28T01:24:13.252Z,77.76
2022-11-28T01:25:40.571Z,77.74
2022-11-28T01:27:08.942Z,77.66
2022-11-28T01:28:50.724Z,77.76
2022-11-28T01:30:22.108Z,77.46
2022-11-28T01:31:46.082Z,77.58
2022-11-28T01:33:07.672Z,77.54
2022-11-28T01:34:30.155Z,77.41
2022-11-28T01:35:56.206Z,77.14
2022-11-28T01:37:25.159Z,77.23
2022-11-28T01:38:50.382Z,77.08
2022-11-28T01:40:17.212Z,76.90
2022-11-28T01:41:40.735Z,77.00
2022-11-28T01:43:03.354Z,76.93
2022-11-28T01:45:10.921Z,76.76
2022-11-28T01:46:35.105Z,76.81
2022-11-28T01:48:03.229Z,76.83
2022-11-28T01:49:31.607Z,76.79
2022-11-28T01:50:58.276Z,76.57
2022-11-28T01:52:20.969Z,76.82
2022-11-28T01:53:51.717Z,76.96
2022-11-28T01:55:16.919Z,77.08
2022-11-28T01:56:47.317Z,77.19
2022-11-28T01:58:11.245Z,77.09
2022-11-28T01:59:37.841Z,77.29
2022-11-28T02:01:00.641Z,77.10
2022-11-28T02:02:30.096Z,77.11
2022-11-28T02:04:06.139Z,76.92
2022-11-28T02:05:28.683Z,77.06
2022-11-28T02:06:51.232Z,77.03
2022-11-28T02:08:13.716Z,76.94
2022-11-28T02:09:44.174Z,76.79
2022-11-28T02:11:36.155Z,76.94
2022-11-28T02:13:15.392Z,76.87
2022-11-28T02:15:06.205Z,76.79
2022-11-28T02:16:43.735Z,77.11
2022-11-28T02:18:21.183Z,76.77
2022-11-28T02:20:12.499Z,76.57
2022-11-28T02:21:49.023Z,76.57
2022-11-28T02:23:19.539Z,76.42
2022-11-28T02:24:57.441Z,76.69
2022-11-28T02:26:42.282Z,76.33
2022-11-28T02:28:45.796Z,76.49
2022-11-28T02:30:16.256Z,76.50
2022-11-28T02:32:08.612Z,76.56
2022-11-28T02:33:35.327Z,76.37
2022-11-28T02:35:04.840Z,76.52
2022-11-28T02:36:33.418Z,76.72
2022-11-28T02:38:03.703Z,76.52
2022-11-28T02:39:33.145Z,76.18
2022-11-28T02:41:01.258Z,75.97
2022-11-28T02:42:28.523Z,76.20
2022-11-28T02:44:01.436Z,76.02
2022-11-28T02:45:32.309Z,75.98
2022-11-28T02:47:01.296Z,76.11
2022-11-28T02:48:31.871Z,75.93
2022-11-28T02:49:59.802Z,76.09
2022-11-28T02:51:28.581Z,76.27
2022-11-28T02:52:54.629Z,76.06
2022-11-28T02:54:18.917Z,75.73
2022-11-28T02:55:41.657Z,75.75
2022-11-28T02:57:03.613Z,75.75
2022-11-28T02:58:25.362Z,75.65
2022-11-28T02:59:48.815Z,75.66
2022-11-28T03:01:19.400Z,75.87
2022-11-28T03:02:40.611Z,75.83
2022-11-28T03:04:21.912Z,75.93
2022-11-28T03:05:48.473Z,75.88
2022-11-28T03:07:26.116Z,75.78
2022-11-28T03:09:03.214Z,75.77
2022-11-28T03:10:35.089Z,75.94
2022-11-28T03:12:10.814Z,75.82
2022-11-28T03:13:41.534Z,75.99
2022-11-28T03:15:06.592Z,75.88
2022-11-28T03:16:39.297Z,75.78
2022-11-28T03:18:08.975Z,76.03
2022-11-28T03:19:37.187Z,75.93
2022-11-28T03:21:07.904Z,76.13
2022-11-28T03:22:35.093Z,76.01
2022-11-28T03:24:01.499Z,75.97
2022-11-28T03:25:28.684Z,76.21
2022-11-28T03:26:57.360Z,76.33
2022-11-28T03:28:25.179Z,76.40
2022-11-28T03:29:54.191Z,76.52
2022-11-28T03:31:19.228Z,76.48
2022-11-28T03:32:45.918Z,76.44
2022-11-28T03:34:18.496Z,76.45
2022-11-28T03:35:50.696Z,76.62
2022-11-28T03:37:19.511Z,76.10
2022-11-28T03:38:44.596Z,76.19
2022-11-28T03:40:10.198Z,76.56
2022-11-28T03:41:37.095Z,76.32
2022-11-28T03:43:01.861Z,76.71
2022-11-28T03:44:29.389Z,76.64
2022-11-28T03:45:55.859Z,76.66
2022-11-28T03:47:17.988Z,76.68
2022-11-28T03:48:42.788Z,76.80
2022-11-28T03:50:12.542Z,76.62
2022-11-28T03:51:40.025Z,76.72
2022-11-28T03:53:09.112Z,76.67
2022-11-28T03:54:35.744Z,76.70
2022-11-28T03:56:06.410Z,76.90
2022-11-28T03:57:35.067Z,76.75
2022-11-28T03:59:06.105Z,76.82
2022-11-28T04:00:33.587Z,76.99
2022-11-28T04:02:12.517Z,76.97
2022-11-28T04:03:47.672Z,77.05
2022-11-28T04:05:41.945Z,77.05
2022-11-28T04:07:22.964Z,76.83
2022-11-28T04:08:54.249Z,76.97
2022-11-28T04:10:22.440Z,77.02
2022-11-28T04:11:52.430Z,77.10
2022-11-28T04:13:35.222Z,77.01
2022-11-28T04:15:05.691Z,76.88
2022-11-28T04:16:35.716Z,76.69
2022-11-28T04:18:02.539Z,76.93
2022-11-28T04:19:30.686Z,76.76
2022-11-28T04:20:59.702Z,76.82
2022-11-28T04:22:24.969Z,76.93
2022-11-28T04:23:49.919Z,77.01
2022-11-28T04:25:15.544Z,76.98
2022-11-28T04:26:42.714Z,77.07
2022-11-28T04:28:09.620Z,76.95
2022-11-28T04:29:36.035Z,77.17
2022-11-28T04:31:02.962Z,77.22
2022-11-28T04:32:30.541Z,77.06
2022-11-28T04:34:45.648Z,77.38
2022-11-28T04:36:13.807Z,77.46
2022-11-28T04:37:40.146Z,77.59
2022-11-28T04:39:03.038Z,77.46
2022-11-28T04:40:27.164Z,77.33
2022-11-28T04:41:56.082Z,77.03
2022-11-28T04:43:22.360Z,77.32
2022-11-28T04:44:59.429Z,77.32
2022-11-28T04:46:29.224Z,77.61
2022-11-28T04:47:52.417Z,77.40
2022-11-28T04:49:15.554Z,77.41
2022-11-28T04:50:43.954Z,77.28
2022-11-28T04:52:10.282Z,77.27
2022-11-28T04:53:38.437Z,77.51
2022-11-28T04:55:07.367Z,77.54
2022-11-28T04:56:37.639Z,77.78
2022-11-28T04:58:12.010Z,77.77
2022-11-28T04:59:37.503Z,77.83
2022-11-28T05:01:23.577Z,77.63
2022-11-28T05:02:59.643Z,77.47
2022-11-28T05:04:21.747Z,77.90
2022-11-28T05:05:45.985Z,77.90
2022-11-28T05:07:09.662Z,77.72
2022-11-28T05:08:34.907Z,77.78
2022-11-28T05:09:57.845Z,77.78
2022-11-28T05:11:20.242Z,77.80
2022-11-28T05:12:42.346Z,77.94
2022-11-28T05:14:03.616Z,77.84
2022-11-28T05:15:26.000Z,77.83
2022-11-28T05:16:48.508Z,78.01
2022-11-28T05:18:13.011Z,77.77
2022-11-28T05:19:35.813Z,77.99
2022-11-28T05:20:59.167Z,77.93
2022-11-28T05:22:20.882Z,77.63
2022-11-28T05:23:46.288Z,77.89
2022-11-28T05:25:10.727Z,77.64
2022-11-28T05:26:34.348Z,77.39
2022-11-28T05:27:55.318Z,77.56
2022-11-28T05:29:17.497Z,77.33
2022-11-28T05:30:39.931Z,77.41
2022-11-28T05:32:01.956Z,77.20
2022-11-28T05:33:23.517Z,77.10
2022-11-28T05:34:45.991Z,77.25
2022-11-28T05:36:13.225Z,77.44
2022-11-28T05:37:35.765Z,77.20
2022-11-28T05:39:00.173Z,77.27
2022-11-28T05:40:22.219Z,77.49
2022-11-28T05:41:44.532Z,77.50
2022-11-28T05:43:06.155Z,77.66
2022-11-28T05:44:28.339Z,77.86
2022-11-28T05:45:50.338Z,77.91
2022-11-28T05:47:12.696Z,77.53
2022-11-28T05:48:33.531Z,77.58
2022-11-28T05:49:55.632Z,77.59
2022-11-28T05:51:18.130Z,77.41
2022-11-28T05:52:40.546Z,77.36
2022-11-28T05:54:03.905Z,77.03
2022-11-28T05:55:27.681Z,77.16
2022-11-28T05:56:49.982Z,77.12
2022-11-28T05:58:16.605Z,76.89
2022-11-28T05:59:45.390Z,77.05
2022-11-28T06:01:11.766Z,77.15
2022-11-28T06:06:15.292Z,77.04
2022-11-28T06:08:56.369Z,77.15
2022-11-28T06:11:02.034Z,76.68
2022-11-28T06:12:30.979Z,76.67
2022-11-28T06:17:06.199Z,76.73
2022-11-28T06:18:49.616Z,76.71
2022-11-28T06:21:08.374Z,76.82
2022-11-28T06:23:04.203Z,77.01
2022-11-28T06:27:32.742Z,77.01
2022-11-28T06:29:41.729Z,76.95
2022-11-28T06:34:44.017Z,77.07
2022-11-28T06:36:46.078Z,76.88
2022-11-28T06:38:46.755Z,77.12
2022-11-28T06:43:21.285Z,77.02
2022-11-28T07:00:11.806Z,76.65
2022-11-28T07:03:06.335Z,76.41
2022-11-28T07:05:29.521Z,76.33
2022-11-28T07:09:58.965Z,76.65
2022-11-28T07:11:33.891Z,76.59
2022-11-28T07:13:05.323Z,76.69
2022-11-28T07:14:37.295Z,76.73
2022-11-28T07:16:23.459Z,76.74
2022-11-28T07:17:59.768Z,76.72
2022-11-28T07:19:33.355Z,76.82
2022-11-28T07:21:12.912Z,76.58
2022-11-28T07:23:00.030Z,76.58
2022-11-28T07:24:36.971Z,76.58
2022-11-28T07:26:03.176Z,76.57
2022-11-28T07:27:55.243Z,76.49
2022-11-28T07:29:20.928Z,76.36
2022-11-28T07:31:11.845Z,76.14
2022-11-28T07:32:51.908Z,76.30
2022-11-28T07:34:14.937Z,76.24
2022-11-28T07:35:38.715Z,76.44
2022-11-28T07:37:06.367Z,76.20
2022-11-28T07:38:30.041Z,76.39
2022-11-28T07:40:02.547Z,76.46
2022-11-28T07:41:31.373Z,76.37
2022-11-28T07:42:56.742Z,76.67
2022-11-28T07:44:23.399Z,76.59
2022-11-28T07:46:00.578Z,76.70
2022-11-28T07:47:26.948Z,76.72
2022-11-28T07:48:51.359Z,76.69
2022-11-28T07:50:13.832Z,76.58
2022-11-28T07:51:36.876Z,76.42
2022-11-28T07:53:07.167Z,76.05
2022-11-28T07:54:29.949Z,75.77
2022-11-28T07:55:52.595Z,75.51
2022-11-28T07:57:18.981Z,75.66
2022-11-28T07:58:42.516Z,75.37
2022-11-28T08:00:10.893Z,75.26
2022-11-28T08:01:36.994Z,75.18
2022-11-28T08:03:02.251Z,74.78
2022-11-28T08:04:26.165Z,74.90
2022-11-28T08:05:49.957Z,74.71
2022-11-28T08:07:21.665Z,74.05
2022-11-28T08:08:45.620Z,74.05
2022-11-28T08:10:16.351Z,73.91
2022-11-28T08:11:54.742Z,73.84
2022-11-28T08:13:17.088Z,73.84
2022-11-28T08:14:50.144Z,73.70
2022-11-28T08:16:18.437Z,73.69
2022-11-28T08:17:44.086Z,73.72
2022-11-28T08:19:06.387Z,73.47
2022-11-28T08:20:28.533Z,73.14
2022-11-28T08:21:53.965Z,73.46
2022-11-28T08:23:27.770Z,72.71
2022-11-28T08:24:57.837Z,73.29
2022-11-28T08:26:37.013Z,73.30
2022-11-28T08:28:31.619Z,73.45
2022-11-28T08:30:19.075Z,73.58
2022-11-28T08:32:10.753Z,73.51
2022-11-28T08:34:01.691Z,73.21
2022-11-28T08:38:37.417Z,72.97
2022-11-28T08:40:33.950Z,72.75
2022-11-28T08:42:21.231Z,72.81
2022-11-28T08:44:09.697Z,72.26
2022-11-28T08:45:39.801Z,71.82
2022-11-28T08:47:02.337Z,71.05
2022-11-28T08:48:28.249Z,71.12
2022-11-28T08:49:54.324Z,70.86
2022-11-28T08:51:18.726Z,70.67
2022-11-28T08:52:41.476Z,70.54
2022-11-28T08:54:06.410Z,70.43
2022-11-28T08:55:32.154Z,70.32
2022-11-28T08:56:54.839Z,70.42
2022-11-28T08:58:17.124Z,70.58
2022-11-28T08:59:39.507Z,70.56
2022-11-28T09:01:04.316Z,70.32
2022-11-28T09:02:31.006Z,70.11
2022-11-28T09:04:03.814Z,70.10
2022-11-28T09:05:29.758Z,70.08
2022-11-28T09:07:02.928Z,70.36
2022-11-28T09:08:45.459Z,70.44
2022-11-28T09:10:15.219Z,70.44
2022-11-28T09:11:50.319Z,70.74
2022-11-28T09:13:38.583Z,69.83
2022-11-28T09:15:14.263Z,69.85
2022-11-28T09:16:53.915Z,70.00
2022-11-28T09:18:29.410Z,69.87
2022-11-28T09:20:04.797Z,69.66
2022-11-28T09:21:37.870Z,69.37
2022-11-28T09:23:06.590Z,68.79
2022-11-28T09:25:02.458Z,68.34
2022-11-28T09:30:29.191Z,68.89
2022-11-28T09:38:23.523Z,68.61
2022-11-28T09:40:11.933Z,68.41
2022-11-28T09:42:00.969Z,68.26
2022-11-28T09:43:33.744Z,68.40
2022-11-28T09:45:03.598Z,68.42
2022-11-28T09:46:35.986Z,68.23
2022-11-28T09:50:58.701Z,68.52
2022-11-28T09:52:41.304Z,68.74
2022-11-28T09:56:39.439Z,68.36
2022-11-28T09:58:35.461Z,67.70
2022-11-28T10:03:10.914Z,66.27
2022-11-28T10:04:44.183Z,65.89
2022-11-28T10:06:21.648Z,65.76
2022-11-28T10:08:05.362Z,65.79
2022-11-28T10:09:43.470Z,65.58
2022-11-28T10:11:22.300Z,65.77
2022-11-28T10:13:05.378Z,65.68
2022-11-28T10:15:03.456Z,65.77
2022-11-28T10:16:44.310Z,65.68
2022-11-28T10:18:21.741Z,65.85
2022-11-28T10:19:56.943Z,65.89
2022-11-28T10:21:29.919Z,65.82
2022-11-28T10:22:59.006Z,65.94
2022-11-28T10:24:27.398Z,65.88
2022-11-28T10:25:55.003Z,65.94
2022-11-28T10:27:22.574Z,66.08
2022-11-28T10:28:52.694Z,66.13
2022-11-28T10:30:22.809Z,65.99
2022-11-28T10:31:47.246Z,65.94
2022-11-28T10:33:21.828Z,66.04
2022-11-28T10:34:51.098Z,66.40
2022-11-28T10:36:22.662Z,66.47
2022-11-28T10:37:51.500Z,66.36
2022-11-28T10:39:15.283Z,66.61
2022-11-28T10:40:44.410Z,66.58
2022-11-28T10:42:16.834Z,66.49
2022-11-28T10:43:53.937Z,66.73
2022-11-28T10:45:24.819Z,66.70
2022-11-28T10:46:58.397Z,66.74
2022-11-28T10:48:40.149Z,66.98
2022-11-28T10:50:08.335Z,66.88
2022-11-28T10:51:39.737Z,66.93
2022-11-28T10:53:07.840Z,66.96
2022-11-28T10:54:53.553Z,66.90
2022-11-28T10:56:32.953Z,66.94
2022-11-28T10:58:05.639Z,67.02
2022-11-28T10:59:37.933Z,67.22
2022-11-28T11:01:03.743Z,66.96
2022-11-28T11:02:35.299Z,67.14
2022-11-28T11:04:10.365Z,67.24
2022-11-28T11:05:35.213Z,67.35
2022-11-28T11:07:10.593Z,67.27
2022-11-28T11:08:37.271Z,67.43
2022-11-28T11:10:03.950Z,67.43
2022-11-28T11:11:28.964Z,67.48
2022-11-28T11:12:53.794Z,67.71
2022-11-28T11:14:16.107Z,67.77
2022-11-28T11:15:38.559Z,67.78
2022-11-28T11:17:01.066Z,67.85
2022-11-28T11:18:26.529Z,67.78
2022-11-28T11:19:49.519Z,67.77
2022-11-28T11:21:19.047Z,67.64
2022-11-28T11:22:41.448Z,67.67
2022-11-28T11:24:17.386Z,67.75
2022-11-28T11:25:48.138Z,67.53
2022-11-28T11:27:19.411Z,67.41
2022-11-28T11:28:45.185Z,67.53
2022-11-28T11:30:19.980Z,67.18
2022-11-28T11:31:46.270Z,67.20
2022-11-28T11:33:17.264Z,67.11
2022-11-28T11:34:45.586Z,66.92
2022-11-28T11:36:23.935Z,66.92
2022-11-28T11:37:46.416Z,66.86
2022-11-28T11:39:22.206Z,66.57
2022-11-28T11:40:48.078Z,66.77
2022-11-28T11:42:21.528Z,66.60
2022-11-28T11:43:48.655Z,66.62
2022-11-28T11:45:34.533Z,66.42
2022-11-28T11:47:03.708Z,66.45
2022-11-28T11:48:37.152Z,66.37
2022-11-28T11:50:19.290Z,66.21
2022-11-28T11:51:43.167Z,66.01
2022-11-28T11:53:14.577Z,66.14
2022-11-28T11:54:39.604Z,66.27
2022-11-28T11:56:04.767Z,66.22
2022-11-28T11:57:34.389Z,66.24
2022-11-28T11:59:00.495Z,66.22
2022-11-28T12:00:27.571Z,66.19
2022-11-28T12:02:01.537Z,66.29
2022-11-28T12:03:34.145Z,66.13
2022-11-28T12:05:02.694Z,66.18
2022-11-28T12:06:29.650Z,66.15
2022-11-28T12:08:02.638Z,66.27
2022-11-28T12:09:40.878Z,66.45
2022-11-28T12:11:17.444Z,66.55
2022-11-28T12:12:40.462Z,66.44
2022-11-28T12:14:29.081Z,66.46
2022-11-28T12:16:00.483Z,66.58
2022-11-28T12:17:50.803Z,66.76
2022-11-28T12:19:31.828Z,66.73
2022-11-28T12:21:09.946Z,66.82
2022-11-28T12:22:39.652Z,66.84
2022-11-28T12:24:22.215Z,67.02
2022-11-28T12:25:48.626Z,67.14
2022-11-28T12:27:26.345Z,66.98
2022-11-28T12:29:13.350Z,66.93
2022-11-28T12:30:55.423Z,67.03
2022-11-28T12:32:33.176Z,67.16
2022-11-28T12:34:18.002Z,67.17
2022-11-28T12:35:48.794Z,67.15
2022-11-28T12:37:32.992Z,67.34
2022-11-28T12:39:16.327Z,67.31
2022-11-28T12:40:54.992Z,67.44
2022-11-28T12:42:43.381Z,67.36
2022-11-28T12:44:17.076Z,67.43
2022-11-28T12:45:48.357Z,67.45
2022-11-28T12:47:24.090Z,67.55
2022-11-28T12:49:03.390Z,67.49
2022-11-28T12:50:33.798Z,67.61
2022-11-28T12:52:14.105Z,67.51
2022-11-28T12:54:05.842Z,67.65
2022-11-28T12:55:36.287Z,67.74
2022-11-28T12:57:08.605Z,67.82
2022-11-28T12:58:36.284Z,67.93
2022-11-28T13:00:08.973Z,67.80
2022-11-28T13:01:53.753Z,67.73
2022-11-28T13:03:49.457Z,67.80
2022-11-28T13:05:24.426Z,67.92
2022-11-28T13:06:57.428Z,67.91
2022-11-28T13:08:48.184Z,67.82
2022-11-28T13:10:21.836Z,67.97
2022-11-28T13:11:57.003Z,68.00
2022-11-28T13:13:26.767Z,67.87
2022-11-28T13:14:56.957Z,67.93
2022-11-28T13:16:27.681Z,67.89
2022-11-28T13:18:03.503Z,68.03
2022-11-28T13:19:38.278Z,67.98
2022-11-28T13:21:41.118Z,67.97
2022-11-28T13:23:29.094Z,67.92
2022-11-28T13:25:22.439Z,67.78
2022-11-28T13:27:06.354Z,67.93
2022-11-28T13:34:45.256Z,68.10
2022-11-28T13:42:03.495Z,68.24
2022-11-28T13:49:27.792Z,68.25
2022-11-28T13:51:30.595Z,68.31
2022-11-28T13:53:03.034Z,68.57
2022-11-28T13:54:46.586Z,68.53
2022-11-28T13:56:30.453Z,68.52
2022-11-28T13:58:01.206Z,68.64
2022-11-28T14:01:45.106Z,68.74
2022-11-28T14:03:17.356Z,68.55
2022-11-28T14:05:00.383Z,68.53
2022-11-28T14:06:44.949Z,68.60
2022-11-28T14:08:08.552Z,68.72
2022-11-28T14:09:44.971Z,68.84
2022-11-28T14:11:28.206Z,68.78
2022-11-28T14:13:13.898Z,68.72
2022-11-28T14:15:06.894Z,68.90
2022-11-28T14:16:51.411Z,68.70
2022-11-28T14:18:56.883Z,68.96
2022-11-28T14:21:00.301Z,68.93
2022-11-28T14:23:46.088Z,68.86
2022-11-28T14:26:16.231Z,68.88
2022-11-28T14:30:37.222Z,69.05
2022-11-28T14:32:40.450Z,69.08
2022-11-28T14:43:44.330Z,69.40
2022-11-28T14:58:36.176Z,69.98
2022-11-28T15:00:46.909Z,70.04
2022-11-28T15:03:01.337Z,70.12
2022-11-28T15:05:23.618Z,70.07
2022-11-28T15:07:08.154Z,70.19
2022-11-28T15:08:57.476Z,70.30
2022-11-28T15:10:56.680Z,70.05
2022-11-28T15:15:20.902Z,69.97
2022-11-28T15:17:37.450Z,70.17
2022-11-28T15:19:16.692Z,70.07
2022-11-28T15:20:54.209Z,70.32
2022-11-28T15:25:46.028Z,70.55
2022-11-28T15:27:39.758Z,70.50
2022-11-28T15:29:23.397Z,70.92
2022-11-28T15:31:41.117Z,71.07
2022-11-28T15:33:50.882Z,70.84
2022-11-28T15:35:16.903Z,70.85
2022-11-28T15:36:40.954Z,70.71
2022-11-28T15:38:15.566Z,70.80
2022-11-28T15:39:42.424Z,70.63
2022-11-28T15:41:30.655Z,70.55
2022-11-28T15:42:59.037Z,70.41
2022-11-28T15:44:29.947Z,70.43
2022-11-28T15:51:59.054Z,70.06
2022-11-28T15:55:08.722Z,70.13
2022-11-28T15:57:09.862Z,70.11
2022-11-28T15:59:45.229Z,70.07
2022-11-28T16:04:20.335Z,70.12
2022-11-28T16:05:53.025Z,70.00
2022-11-28T16:08:27.521Z,69.79
2022-11-28T16:10:40.585Z,70.02
2022-11-28T16:12:20.609Z,69.92
2022-11-28T16:19:41.502Z,69.84
2022-11-28T16:22:01.689Z,69.94
2022-11-28T16:23:41.909Z,69.83
2022-11-28T16:26:09.573Z,69.72
2022-11-28T16:27:55.339Z,69.86
2022-11-28T16:31:45.939Z,69.77
2022-11-28T16:33:38.905Z,69.62
2022-11-28T16:35:16.840Z,69.69
2022-11-28T16:49:31.600Z,69.63
2022-11-28T16:53:51.883Z,69.56
2022-11-28T16:56:38.446Z,69.56
2022-11-28T16:58:16.077Z,69.61
2022-11-28T16:59:48.876Z,69.72
2022-11-28T17:04:01.215Z,69.45
2022-11-28T17:05:26.226Z,69.48
2022-11-28T17:06:49.411Z,69.35
2022-11-28T17:08:11.635Z,69.43
2022-11-28T17:09:41.485Z,69.34
2022-11-28T17:11:03.092Z,69.25
2022-11-28T17:12:30.614Z,69.36
2022-11-28T17:13:57.786Z,69.33
2022-11-28T17:15:23.786Z,69.26
2022-11-28T17:16:46.618Z,69.05
2022-11-28T17:18:52.729Z,69.18
2022-11-28T17:20:15.147Z,68.89
2022-11-28T17:21:42.395Z,69.08
2022-11-28T17:23:06.104Z,68.99
2022-11-28T17:24:31.066Z,69.05
2022-11-28T17:25:52.324Z,68.66
2022-11-28T17:27:15.593Z,68.92
2022-11-28T17:28:37.269Z,68.87
2022-11-28T17:29:59.790Z,69.02
2022-11-28T17:31:25.570Z,68.81
2022-11-28T17:32:49.345Z,68.82
2022-11-28T17:34:17.227Z,68.96
2022-11-28T17:35:42.979Z,68.70
2022-11-28T17:37:06.940Z,68.77
2022-11-28T17:38:33.906Z,68.78
2022-11-28T17:40:15.534Z,68.77
2022-11-28T17:41:37.838Z,68.78
2022-11-28T17:43:01.374Z,68.80
2022-11-28T17:44:25.455Z,68.78
2022-11-28T17:45:49.122Z,68.80
2022-11-28T17:47:12.295Z,68.85
2022-11-28T17:48:37.781Z,68.95
2022-11-28T17:50:00.053Z,68.67
2022-11-28T17:51:22.477Z,68.71
2022-11-28T17:52:47.053Z,68.56
2022-11-28T17:54:09.521Z,68.51
2022-11-28T17:55:32.052Z,68.73
2022-11-28T17:56:55.207Z,68.50
2022-11-28T17:58:20.275Z,68.72
2022-11-28T17:59:43.099Z,68.94
2022-11-28T18:01:10.838Z,68.64
2022-11-28T18:02:35.090Z,68.67
2022-11-28T18:04:01.256Z,68.80
2022-11-28T18:05:42.514Z,68.82
2022-11-28T18:07:04.775Z,68.82
2022-11-28T18:08:29.967Z,68.66
2022-11-28T18:09:52.854Z,68.65
2022-11-28T18:11:18.326Z,68.51
2022-11-28T18:12:41.499Z,68.20
2022-11-28T18:14:06.401Z,68.33
2022-11-28T18:15:34.065Z,68.30
2022-11-28T18:16:56.965Z,68.27
2022-11-28T18:18:22.665Z,68.15
2022-11-28T18:21:30.704Z,68.03
2022-11-28T18:22:53.518Z,68.18
2022-11-28T18:24:20.203Z,68.16
2022-11-28T18:25:45.932Z,68.31
2022-11-28T18:27:09.352Z,68.13
2022-11-28T18:28:35.767Z,68.00
2022-11-28T18:30:01.760Z,68.11
2022-11-28T18:33:14.514Z,68.22
2022-11-28T18:34:36.887Z,68.04
2022-11-28T18:36:11.679Z,68.14
2022-11-28T18:37:38.032Z,68.08
2022-11-28T18:39:07.374Z,67.90
2022-11-28T18:40:34.137Z,67.94
2022-11-28T18:41:56.562Z,67.92
2022-11-28T18:43:22.106Z,67.84
2022-11-28T18:44:44.929Z,67.95
2022-11-28T18:46:11.045Z,67.93
2022-11-28T18:47:34.586Z,67.84
2022-11-28T18:48:58.618Z,67.98
2022-11-28T18:50:21.048Z,67.88
2022-11-28T18:51:54.033Z,67.89
2022-11-28T18:53:18.940Z,67.75
2022-11-28T18:54:43.529Z,67.65
2022-11-28T18:56:19.107Z,67.88
2022-11-28T18:57:44.009Z,67.76
2022-11-28T18:59:06.322Z,68.11
2022-11-28T19:00:29.566Z,67.79
2022-11-28T19:01:52.764Z,67.79
2022-11-28T19:03:15.268Z,67.92
2022-11-28T19:04:37.503Z,67.68
2022-11-28T19:06:01.332Z,67.74
2022-11-28T19:07:29.244Z,67.86
2022-11-28T19:08:55.199Z,67.78
2022-11-28T19:10:18.021Z,67.98
2022-11-28T19:11:42.295Z,67.82
2022-11-28T19:13:05.654Z,67.77
2022-11-28T19:14:28.454Z,67.97
2022-11-28T19:15:53.922Z,68.02
2022-11-28T19:17:21.843Z,68.07
2022-11-28T19:19:05.613Z,68.21
2022-11-28T19:20:37.699Z,68.04
2022-11-28T19:22:02.390Z,68.30
2022-11-28T19:23:26.896Z,68.24
2022-11-28T19:24:51.737Z,68.28
2022-11-28T19:26:19.545Z,68.47
2022-11-28T19:27:46.782Z,68.44
2022-11-28T19:29:09.113Z,68.10
2022-11-28T19:30:32.837Z,68.45
2022-11-28T19:31:56.353Z,68.06
2022-11-28T19:33:31.581Z,68.28
2022-11-28T19:35:46.680Z,68.75
2022-11-28T19:37:20.996Z,68.46
2022-11-28T19:38:43.569Z,68.66
2022-11-28T19:40:10.525Z,68.35
2022-11-28T19:41:38.084Z,68.51
2022-11-28T19:43:04.325Z,68.52
2022-11-28T19:44:29.206Z,68.59
2022-11-28T19:45:57.805Z,68.72
2022-11-28T19:47:20.683Z,68.70
2022-11-28T19:48:44.265Z,68.48
2022-11-28T19:50:11.016Z,68.93
2022-11-28T19:51:32.722Z,68.61
2022-11-28T19:52:55.364Z,68.56
2022-11-28T19:54:27.357Z,68.69
2022-11-28T19:55:51.503Z,68.82
2022-11-28T19:57:13.949Z,68.70
2022-11-28T19:58:38.115Z,68.67
2022-11-28T20:00:00.956Z,68.59
2022-11-28T20:01:25.136Z,68.73
2022-11-28T20:02:50.411Z,68.72
2022-11-28T20:04:13.851Z,68.70
2022-11-28T20:05:37.512Z,68.58
2022-11-28T20:07:00.215Z,68.41
2022-11-28T20:08:25.059Z,68.41
2022-11-28T20:09:47.692Z,68.42
2022-11-28T20:11:11.160Z,68.16
2022-11-28T20:12:34.166Z,68.35
2022-11-28T20:14:03.275Z,68.15
2022-11-28T20:15:30.470Z,67.93
2022-11-28T20:16:56.819Z,67.95
2022-11-28T20:18:26.787Z,68.05
2022-11-28T20:19:49.307Z,68.11
2022-11-28T20:21:19.648Z,68.08
2022-11-28T20:22:44.111Z,68.18
2022-11-28T20:24:08.514Z,67.95
2022-11-28T20:25:34.005Z,67.67
2022-11-28T20:26:57.316Z,67.69
2022-11-28T20:28:18.224Z,67.92
2022-11-28T20:29:42.791Z,67.94
2022-11-28T20:31:06.398Z,68.00
2022-11-28T20:32:30.488Z,68.10
2022-11-28T20:33:54.298Z,67.89
2022-11-28T20:35:19.483Z,68.04
2022-11-28T20:36:42.229Z,68.07
2022-11-28T20:38:06.127Z,67.95
2022-11-28T20:39:36.001Z,68.08
2022-11-28T20:41:02.409Z,67.81
2022-11-28T20:42:43.837Z,67.83
2022-11-28T20:44:09.381Z,68.12
2022-11-28T20:45:49.415Z,68.21
2022-11-28T20:47:15.917Z,68.34
2022-11-28T20:48:37.790Z,68.12
2022-11-28T20:50:00.135Z,68.25
2022-11-28T20:51:25.572Z,68.40
2022-11-28T20:52:52.609Z,68.31
2022-11-28T20:54:16.056Z,68.42
2022-11-28T20:55:37.096Z,68.34
2022-11-28T20:58:45.406Z,68.54
2022-11-28T21:00:13.849Z,68.55
2022-11-28T21:01:38.570Z,68.74
2022-11-28T21:03:00.691Z,68.66
2022-11-28T21:04:22.766Z,68.69
2022-11-28T21:05:48.717Z,68.66
2022-11-28T21:07:12.180Z,68.48
2022-11-28T21:08:35.202Z,68.49
2022-11-28T21:10:04.009Z,68.37
2022-11-28T21:13:12.453Z,68.17
2022-11-28T21:14:34.513Z,68.29
2022-11-28T21:15:56.023Z,68.38
2022-11-28T21:17:23.894Z,68.35
2022-11-28T21:18:49.606Z,68.18
2022-11-28T21:20:13.619Z,68.46
2022-11-28T21:21:40.401Z,68.51
2022-11-28T21:23:12.158Z,68.48
2022-11-28T21:24:34.275Z,68.73
2022-11-28T21:25:57.107Z,68.58
2022-11-28T21:27:24.906Z,68.50
2022-11-28T21:28:49.224Z,68.58
2022-11-28T21:30:12.176Z,68.52
2022-11-28T21:34:53.374Z,68.54
2022-11-28T21:36:36.032Z,68.60
2022-11-28T21:37:58.900Z,68.70
2022-11-28T21:39:25.689Z,68.55
2022-11-28T21:40:53.555Z,68.60
2022-11-28T21:42:20.718Z,68.74
2022-11-28T21:43:43.212Z,68.75
2022-11-28T21:45:10.447Z,68.72
2022-11-28T21:46:32.908Z,68.64
2022-11-28T21:47:55.175Z,68.93
2022-11-28T21:49:20.583Z,68.49
2022-11-28T21:50:48.543Z,68.40
2022-11-28T21:52:11.844Z,68.68
2022-11-28T21:53:34.943Z,68.76
2022-11-28T21:54:57.361Z,68.67
2022-11-28T21:56:22.070Z,68.59
2022-11-28T21:57:44.358Z,68.69
2022-11-28T21:59:06.679Z,68.61
2022-11-28T22:00:52.038Z,68.74
2022-11-28T22:02:15.422Z,68.70
2022-11-28T22:03:39.073Z,68.89
2022-11-28T22:05:07.984Z,68.97
2022-11-28T22:06:31.734Z,68.77
2022-11-28T22:07:55.981Z,68.88
2022-11-28T22:09:20.361Z,69.10
2022-11-28T22:10:44.295Z,69.03
2022-11-28T22:12:07.474Z,69.12
2022-11-28T22:13:33.558Z,68.91
2022-11-28T22:14:58.411Z,68.94
2022-11-28T22:16:24.056Z,68.95